La Crosse Municipal Airport
KLSE : now visible

Airfield :











YOU CAN JOIN US ON...

 
LOGIN :

Register | Disclaimer

   EN    FR    IT 

 









Legend :    VFR   Marginal VFR   IFR   Intensive IFR   Very Intensive IFR
Visi :
Ceiling :
>= 8 km
>= 3000ft
5 to 8 km
1000 to 3000 ft
1500m to 5 km
500 to 1000 ft
800 to 1500m
200 to 500 ft
< 800m
< 200 ft
Symbols :   Thunderstorms  Fog  Heavy snow  Heavy precipitations  Wind > 20 kt







- Airport Elevation : 655 ft
- IATA code : LSE


KLSE - La Crosse Municipal

CURRENT METAR :
  • 201953Z 14005KT 10SM CLR 29/21 A3002 RMK AO2 SLP156 T02890211

EXPIRED METARs :
  • 201853Z 19010KT 10SM FEW022 FEW075 28/21 A3004 RMK AO2 SLP161 T02830211
  • 201753Z 18009KT 10SM BKN070 28/21 A3005 RMK AO2 SLP167 T02830211 10283 20183 58013

TAF KLSE
Valid from the 20 at 18:00 until the 21 at 18:00 UTC


201726Z 2018/2118 15006KT P6SM SCT035
FM210900 16009KT P6SM BKN200
FM211300 18012KT 5SM SHRA VCTS OVC012CB
No reported NOTAMs for that airfield.



MET'MAP, your aeronautical weather chart ! - Copyright ORBIFLY December 2007 - Disclaimer

ORBIFLY MET'MAP TEAM :

Programming & Development : Alexandra Zaïnal
Concept & Development : Baudouin d'Aumeries
Co-Development & Prog : Marc-Olivier Méhu
Technical & hardware support : Manuel Goepfert

Contact : metmap@orbifly.com




SOURCES & CREDITS :

   NOAA       Earth
Advisory